Time;durP1;ratioP1;P1;durP2;ratioP2;P2;SDS_P1;SDS_P2;PMS_P1;PMS_P2;Temp;Humidity;BMP_temperature;BMP_pressure;BME280_temperature;BME280_humidity;BME280_pressure;Samples;Min_cycle;Max_cycle;Signal;HPM_P1;HPM_P2
2023/09/19 00:02:16;;;;;;;0.30;0.30;;;18.70;99.90;;;;;;4410343;32;20066;-63
2023/09/19 00:04:42;;;;;;;1.10;0.85;;;18.70;99.90;;;;;;4406446;32;20078;-63
2023/09/19 00:07:09;;;;;;;0.43;0.43;;;18.70;99.90;;;;;;4410233;32;20069;-61
2023/09/19 00:09:37;;;;;;;1.35;0.85;;;18.80;99.90;;;;;;4410425;32;20093;-62
2023/09/19 00:12:05;;;;;;;0.20;0.20;;;18.70;99.90;;;;;;4408328;32;20106;-63
2023/09/19 00:14:34;;;;;;;0.30;0.30;;;18.60;99.90;;;;;;4409564;32;20082;-61
2023/09/19 00:17:00;;;;;;;0.22;0.22;;;18.60;99.90;;;;;;4411703;32;20124;-61
2023/09/19 00:19:26;;;;;;;0.30;0.30;;;18.60;99.90;;;;;;4387526;32;20073;-62
2023/09/19 00:21:53;;;;;;;0.40;0.40;;;18.60;99.90;;;;;;4409467;32;20113;-60
2023/09/19 00:24:18;;;;;;;0.55;0.55;;;18.60;99.90;;;;;;4410666;32;20081;-61
2023/09/19 00:26:46;;;;;;;1.35;0.77;;;18.60;99.90;;;;;;4410506;32;20065;-61
2023/09/19 00:29:13;;;;;;;13.95;0.40;;;18.50;99.90;;;;;;4410935;32;20093;-60
2023/09/19 00:31:39;;;;;;;3.83;1.48;;;18.40;99.90;;;;;;4395607;32;20504;-61
2023/09/19 00:34:05;;;;;;;0.43;0.43;;;18.40;99.90;;;;;;4409398;32;20132;-63
2023/09/19 00:36:31;;;;;;;0.50;0.50;;;18.50;99.90;;;;;;4409978;32;20197;-63
2023/09/19 00:38:57;;;;;;;1.05;0.57;;;18.40;99.90;;;;;;4410010;32;20078;-62
2023/09/19 00:41:24;;;;;;;2.12;0.40;;;18.40;99.90;;;;;;4409301;32;20086;-62
2023/09/19 00:43:50;;;;;;;0.30;0.30;;;18.40;99.90;;;;;;4410325;32;20501;-62
2023/09/19 00:46:17;;;;;;;0.40;0.40;;;18.40;99.90;;;;;;4410179;32;20070;-63
2023/09/19 00:48:43;;;;;;;0.20;0.20;;;18.40;99.90;;;;;;4410761;32;20085;-64
2023/09/19 00:51:09;;;;;;;0.68;0.65;;;18.40;99.90;;;;;;4411405;32;20576;-63
2023/09/19 00:53:34;;;;;;;0.55;0.55;;;18.40;99.90;;;;;;4395677;32;20089;-63
2023/09/19 00:56:00;;;;;;;0.30;0.30;;;18.40;99.90;;;;;;4411878;32;20150;-63
2023/09/19 00:58:25;;;;;;;0.30;0.30;;;18.40;99.90;;;;;;4408589;32;20453;-63
2023/09/19 01:00:53;;;;;;;0.75;0.35;;;18.40;99.90;;;;;;4412225;32;21698;-63
2023/09/19 01:03:18;;;;;;;3.58;0.45;;;18.40;99.90;;;;;;4407242;32;20109;-63
2023/09/19 01:05:44;;;;;;;2.47;1.48;;;18.30;99.90;;;;;;4408687;32;20085;-63
2023/09/19 01:08:11;;;;;;;0.30;0.30;;;18.30;99.90;;;;;;4411419;32;20065;-63
2023/09/19 01:10:42;;;;;;;0.30;0.30;;;18.30;99.90;;;;;;4411180;32;20587;-63
2023/09/19 01:13:11;;;;;;;;;;;18.30;99.90;;;;;;4412417;32;20152;-64
2023/09/19 01:15:43;;;;;;;5.75;1.23;;;18.30;99.90;;;;;;4412545;32;19956;-64
2023/09/19 01:18:37;;;;;;;0.32;0.32;;;18.20;99.90;;;;;;4411749;32;20093;-63
2023/09/19 01:21:36;;;;;;;0.55;0.40;;;18.20;99.90;;;;;;4399416;32;20078;-63
2023/09/19 01:24:41;;;;;;;0.30;0.30;;;18.10;99.90;;;;;;4402232;32;20160;-63
2023/09/19 01:27:38;;;;;;;0.40;0.40;;;18.10;99.90;;;;;;4387888;32;20472;-64
2023/09/19 01:30:16;;;;;;;5.55;1.33;;;18.10;99.90;;;;;;4387451;32;20080;-63
2023/09/19 01:32:43;;;;;;;0.30;0.30;;;18.10;99.90;;;;;;4412245;32;20682;-64
2023/09/19 01:35:12;;;;;;;0.35;0.35;;;18.10;99.90;;;;;;4412016;32;21730;-64
2023/09/19 01:37:38;;;;;;;0.68;0.68;;;18.10;99.90;;;;;;4409126;32;20097;-63
2023/09/19 01:40:08;;;;;;;0.30;0.30;;;18.20;99.90;;;;;;4409790;32;20947;-63
2023/09/19 01:42:41;;;;;;;1.23;0.97;;;18.20;99.90;;;;;;4384933;32;20337;-63
2023/09/19 01:45:47;;;;;;;0.65;0.65;;;18.30;99.90;;;;;;4413480;32;20638;-63
2023/09/19 01:48:19;;;;;;;0.37;0.37;;;18.30;99.90;;;;;;4394503;32;20082;-63
2023/09/19 01:50:56;;;;;;;0.30;0.30;;;18.20;99.90;;;;;;4411443;32;20089;-63
2023/09/19 01:53:28;;;;;;;0.30;0.30;;;18.20;99.90;;;;;;4414901;32;20482;-63
2023/09/19 01:55:54;;;;;;;0.30;0.30;;;18.20;99.90;;;;;;4399291;32;20498;-63
2023/09/19 01:58:27;;;;;;;1.55;1.05;;;18.20;99.90;;;;;;4412619;32;20093;-63
2023/09/19 02:00:56;;;;;;;0.30;0.30;;;18.20;99.90;;;;;;4408243;32;20090;-63
2023/09/19 02:03:22;;;;;;;0.37;0.37;;;18.20;99.90;;;;;;4411910;32;20097;-64
2023/09/19 02:05:50;;;;;;;0.40;0.40;;;18.10;99.90;;;;;;4418821;32;20093;-62
2023/09/19 02:08:18;;;;;;;2.42;0.52;;;18.10;99.90;;;;;;4412754;32;20086;-64
2023/09/19 02:10:48;;;;;;;0.50;0.50;;;18.10;99.90;;;;;;4396900;32;20086;-63
2023/09/19 02:13:17;;;;;;;;;;;18.00;99.90;;;;;;4415197;32;20082;-63
2023/09/19 02:15:44;;;;;;;0.32;0.32;;;18.00;99.90;;;;;;4398040;32;20018;-63
2023/09/19 02:18:09;;;;;;;0.20;0.20;;;18.00;99.90;;;;;;4410726;32;20480;-63
2023/09/19 02:20:35;;;;;;;0.30;0.30;;;18.00;99.90;;;;;;4413383;32;20167;-63
2023/09/19 02:23:00;;;;;;;0.37;0.37;;;18.00;99.90;;;;;;4414780;32;20505;-63
2023/09/19 02:25:27;;;;;;;4.37;1.37;;;18.00;99.90;;;;;;4411391;32;20089;-63
2023/09/19 02:27:53;;;;;;;0.40;0.40;;;18.00;99.90;;;;;;4411920;32;20093;-64
2023/09/19 02:30:20;;;;;;;0.30;0.30;;;17.90;99.90;;;;;;4409857;32;20093;-61
2023/09/19 02:32:46;;;;;;;0.40;0.40;;;18.00;99.90;;;;;;4412032;32;20117;-63
2023/09/19 02:35:12;;;;;;;0.40;0.40;;;18.00;99.90;;;;;;4411481;32;20085;-63
2023/09/19 02:37:37;;;;;;;0.20;0.20;;;17.90;99.90;;;;;;4397998;32;20489;-60
2023/09/19 02:40:13;;;;;;;2.03;0.60;;;18.00;99.90;;;;;;4410626;32;20110;-63
2023/09/19 02:42:48;;;;;;;0.40;0.40;;;17.90;99.90;;;;;;4412678;32;20130;-61
2023/09/19 02:45:13;;;;;;;0.30;0.30;;;17.90;99.90;;;;;;4413801;32;20074;-63
2023/09/19 02:47:40;;;;;;;0.30;0.30;;;17.90;99.90;;;;;;4409844;32;20074;-63
2023/09/19 02:50:06;;;;;;;0.52;0.52;;;17.90;99.90;;;;;;4409258;32;20078;-63
2023/09/19 02:52:31;;;;;;;0.40;0.40;;;17.90;99.90;;;;;;4411311;32;20442;-62
2023/09/19 02:54:57;;;;;;;0.28;0.28;;;17.90;99.90;;;;;;4411319;32;20065;-63
2023/09/19 02:57:24;;;;;;;0.60;0.60;;;17.90;99.90;;;;;;4410738;32;20538;-63
2023/09/19 02:59:49;;;;;;;0.40;0.40;;;17.90;99.90;;;;;;4412519;32;20081;-63
2023/09/19 03:02:15;;;;;;;6.18;2.60;;;17.90;99.90;;;;;;4412258;32;20072;-64
2023/09/19 03:04:41;;;;;;;0.30;0.30;;;17.80;99.90;;;;;;4412348;32;20090;-63
2023/09/19 03:07:06;;;;;;;0.22;0.22;;;17.80;99.90;;;;;;4397086;32;20162;-64
2023/09/19 03:09:32;;;;;;;0.60;0.60;;;17.90;99.90;;;;;;4412193;32;20125;-63
2023/09/19 03:11:58;;;;;;;1.70;0.65;;;17.90;99.90;;;;;;4409814;32;21286;-63
2023/09/19 03:14:23;;;;;;;0.30;0.30;;;17.90;99.90;;;;;;4412719;32;20061;-64
2023/09/19 03:16:49;;;;;;;0.40;0.40;;;17.90;99.90;;;;;;4412235;32;20641;-64
2023/09/19 03:19:15;;;;;;;0.70;0.68;;;17.90;99.90;;;;;;4409842;32;20085;-63
2023/09/19 03:21:40;;;;;;;0.40;0.40;;;17.90;99.90;;;;;;4411602;32;20057;-63
2023/09/19 03:24:06;;;;;;;0.43;0.43;;;17.80;99.90;;;;;;4411955;32;20144;-63
2023/09/19 03:26:33;;;;;;;0.40;0.40;;;17.80;99.90;;;;;;4411938;32;20789;-64
2023/09/19 03:28:58;;;;;;;0.75;0.68;;;17.80;99.90;;;;;;4411288;32;20077;-63
2023/09/19 03:31:24;;;;;;;1.55;0.85;;;17.80;99.90;;;;;;4409975;32;20137;-63
2023/09/19 03:33:49;;;;;;;6.55;0.73;;;17.80;99.90;;;;;;4410124;32;20552;-63
2023/09/19 03:36:15;;;;;;;0.30;0.30;;;17.80;99.90;;;;;;4411564;32;20069;-63
2023/09/19 03:38:40;;;;;;;0.32;0.32;;;17.70;99.90;;;;;;4411842;32;20089;-63
2023/09/19 03:41:05;;;;;;;0.30;0.30;;;17.70;99.90;;;;;;4410991;32;20089;-63
2023/09/19 03:43:32;;;;;;;0.47;0.40;;;17.60;99.90;;;;;;4411314;32;20213;-60
2023/09/19 03:46:03;;;;;;;0.40;0.40;;;17.60;99.90;;;;;;4411315;32;20410;-64
2023/09/19 03:48:28;;;;;;;;;;;17.60;99.90;;;;;;4412164;32;20076;-62
2023/09/19 03:50:56;;;;;;;0.20;0.20;;;17.50;99.90;;;;;;4410780;32;20601;-63
2023/09/19 03:53:22;;;;;;;0.30;0.30;;;17.50;99.90;;;;;;4410024;32;20089;-60
2023/09/19 03:55:47;;;;;;;6.12;1.30;;;17.60;99.90;;;;;;4409368;32;20058;-63
2023/09/19 03:58:13;;;;;;;0.30;0.30;;;17.50;99.90;;;;;;4413168;32;20136;-63
2023/09/19 04:00:39;;;;;;;0.40;0.40;;;17.50;99.90;;;;;;4396573;32;20058;-64
2023/09/19 04:03:06;;;;;;;1.12;0.70;;;17.60;99.90;;;;;;4413585;32;20515;-63
2023/09/19 04:05:33;;;;;;;0.50;0.50;;;17.50;99.90;;;;;;4412461;32;20078;-62
2023/09/19 04:07:58;;;;;;;0.30;0.30;;;17.50;99.90;;;;;;4397456;32;20102;-62
2023/09/19 04:10:24;;;;;;;0.70;0.70;;;17.50;99.90;;;;;;4411046;32;20065;-62
2023/09/19 04:12:53;;;;;;;0.52;0.52;;;17.50;99.90;;;;;;4412595;32;20764;-60
2023/09/19 04:15:19;;;;;;;0.20;0.20;;;17.50;99.90;;;;;;4382277;32;20136;-62
2023/09/19 04:17:44;;;;;;;0.30;0.30;;;17.50;99.90;;;;;;4410392;32;20165;-61
2023/09/19 04:20:12;;;;;;;0.30;0.30;;;17.50;99.90;;;;;;4409112;32;20158;-62
2023/09/19 04:22:38;;;;;;;0.30;0.30;;;17.50;99.90;;;;;;4406311;32;20833;-62
2023/09/19 04:25:04;;;;;;;0.30;0.30;;;17.50;99.90;;;;;;4408536;32;20149;-60
2023/09/19 04:27:30;;;;;;;0.30;0.30;;;17.50;99.90;;;;;;4394642;32;20114;-61
2023/09/19 04:29:58;;;;;;;0.30;0.30;;;17.50;99.90;;;;;;4411971;32;20607;-61
2023/09/19 04:32:24;;;;;;;0.30;0.30;;;17.50;99.90;;;;;;4410700;32;20532;-60
2023/09/19 04:34:50;;;;;;;3.20;0.50;;;17.40;99.90;;;;;;4411559;32;20123;-61
2023/09/19 04:37:16;;;;;;;0.95;0.60;;;17.40;99.90;;;;;;4410920;32;20090;-60
2023/09/19 04:39:41;;;;;;;0.45;0.40;;;17.30;99.90;;;;;;4412928;32;20443;-63
2023/09/19 04:42:07;;;;;;;0.30;0.30;;;17.30;99.90;;;;;;4409969;32;20167;-61
2023/09/19 04:44:32;;;;;;;2.40;0.50;;;17.40;99.90;;;;;;4409682;32;20360;-61
2023/09/19 04:46:59;;;;;;;0.30;0.30;;;17.40;99.90;;;;;;4413178;32;20156;-60
2023/09/19 04:49:24;;;;;;;0.60;0.60;;;17.30;99.90;;;;;;4411118;32;20471;-60
2023/09/19 04:51:50;;;;;;;0.30;0.30;;;17.30;99.90;;;;;;4413338;32;20089;-60
2023/09/19 04:54:15;;;;;;;0.32;0.32;;;17.40;99.90;;;;;;4411528;32;20567;-62
2023/09/19 04:56:41;;;;;;;0.40;0.40;;;17.40;99.90;;;;;;4410782;32;20061;-60
2023/09/19 04:59:06;;;;;;;0.22;0.22;;;17.40;99.90;;;;;;4413692;32;20062;-60
2023/09/19 05:01:32;;;;;;;0.22;0.22;;;17.30;99.90;;;;;;4392524;32;20138;-60
2023/09/19 05:03:57;;;;;;;0.52;0.52;;;17.30;99.90;;;;;;4411936;32;20082;-60
2023/09/19 05:06:23;;;;;;;0.45;0.45;;;17.30;99.90;;;;;;4412632;32;20434;-61
2023/09/19 05:08:51;;;;;;;4.32;1.12;;;17.30;99.90;;;;;;4412520;32;20477;-61
2023/09/19 05:11:18;;;;;;;0.30;0.30;;;17.30;99.90;;;;;;4410653;32;20089;-59
2023/09/19 05:13:43;;;;;;;0.20;0.20;;;17.20;99.90;;;;;;4414016;32;20180;-60
2023/09/19 05:16:10;;;;;;;0.30;0.30;;;17.10;99.90;;;;;;4413974;32;20838;-60
2023/09/19 05:18:36;;;;;;;0.20;0.20;;;17.20;99.90;;;;;;4398952;32;20086;-64
2023/09/19 05:21:03;;;;;;;0.40;0.40;;;17.20;99.90;;;;;;4411768;32;20525;-62
2023/09/19 05:23:28;;;;;;;0.25;0.25;;;17.20;99.90;;;;;;4398270;32;20532;-61
2023/09/19 05:25:56;;;;;;;0.25;0.25;;;17.20;99.90;;;;;;4408692;32;20097;-65
2023/09/19 05:28:22;;;;;;;0.40;0.40;;;17.20;99.90;;;;;;4403752;32;20082;-62
2023/09/19 05:30:48;;;;;;;0.30;0.30;;;17.20;99.90;;;;;;4399706;32;20839;-62
2023/09/19 05:33:18;;;;;;;11.07;0.40;;;17.20;99.90;;;;;;4396097;32;21722;-64
2023/09/19 05:35:43;;;;;;;0.30;0.30;;;17.20;99.90;;;;;;4379491;32;20101;-64
2023/09/19 05:38:13;;;;;;;0.40;0.40;;;17.20;99.90;;;;;;4403643;32;20101;-62
2023/09/19 05:40:42;;;;;;;0.20;0.20;;;17.10;99.90;;;;;;4408691;32;20073;-64
2023/09/19 05:43:09;;;;;;;0.32;0.32;;;17.10;99.90;;;;;;4388794;32;20182;-62
2023/09/19 05:45:37;;;;;;;0.40;0.40;;;17.20;99.90;;;;;;4383467;32;20101;-61
2023/09/19 05:48:20;;;;;;;2.58;0.80;;;17.20;99.90;;;;;;4389190;32;20519;-60
2023/09/19 05:50:48;;;;;;;0.30;0.30;;;17.20;99.90;;;;;;4394650;32;20279;-63
2023/09/19 05:53:14;;;;;;;0.30;0.30;;;17.10;99.90;;;;;;4382880;32;20102;-66
2023/09/19 05:55:40;;;;;;;0.20;0.20;;;17.20;99.90;;;;;;4374883;32;20111;-63
2023/09/19 05:58:06;;;;;;;0.30;0.30;;;17.10;99.90;;;;;;4386293;32;20124;-64
2023/09/19 06:00:32;;;;;;;0.20;0.20;;;17.20;99.90;;;;;;4365881;32;20088;-64
2023/09/19 06:02:58;;;;;;;0.30;0.30;;;17.20;99.90;;;;;;4380223;32;20232;-64
2023/09/19 06:05:26;;;;;;;0.35;0.35;;;17.10;99.90;;;;;;4381523;32;20147;-64
2023/09/19 06:07:52;;;;;;;0.30;0.30;;;17.10;99.90;;;;;;4369476;32;20172;-63
2023/09/19 06:10:20;;;;;;;0.20;0.20;;;17.10;99.90;;;;;;4369796;32;20960;-64
2023/09/19 06:12:46;;;;;;;0.30;0.30;;;17.10;99.90;;;;;;4350651;32;20678;-64
2023/09/19 06:15:15;;;;;;;0.50;0.50;;;17.10;99.90;;;;;;4373994;32;20102;-64
2023/09/19 06:17:43;;;;;;;0.30;0.30;;;17.20;99.90;;;;;;4391575;32;20867;-63
2023/09/19 06:20:12;;;;;;;0.37;0.37;;;17.20;99.90;;;;;;4381882;32;20151;-63
2023/09/19 06:22:38;;;;;;;0.40;0.40;;;17.20;99.90;;;;;;4402975;32;20158;-64
2023/09/19 06:25:04;;;;;;;0.80;0.80;;;17.20;99.90;;;;;;4417452;32;20137;-63
2023/09/19 06:27:29;;;;;;;0.50;0.50;;;17.30;99.90;;;;;;4405768;32;20177;-64
2023/09/19 06:29:55;;;;;;;0.50;0.50;;;17.30;99.90;;;;;;4413567;32;20156;-64
2023/09/19 06:32:27;;;;;;;0.40;0.40;;;17.40;99.90;;;;;;4410391;32;20101;-64
2023/09/19 06:34:54;;;;;;;0.30;0.30;;;17.30;99.90;;;;;;4413357;32;20082;-63
2023/09/19 06:37:20;;;;;;;0.45;0.43;;;17.40;99.90;;;;;;4402852;32;20160;-63
2023/09/19 06:39:47;;;;;;;0.65;0.50;;;17.50;99.90;;;;;;4392337;32;20139;-63
2023/09/19 06:42:13;;;;;;;0.30;0.30;;;17.50;99.90;;;;;;4392711;32;20109;-63
2023/09/19 06:44:39;;;;;;;0.55;0.32;;;17.50;99.90;;;;;;4392702;32;20086;-64
2023/09/19 06:47:06;;;;;;;0.30;0.30;;;17.50;99.90;;;;;;4400107;32;20093;-61
2023/09/19 06:49:32;;;;;;;0.47;0.40;;;17.50;99.90;;;;;;4406426;32;20370;-63
2023/09/19 06:51:59;;;;;;;3.67;0.80;;;17.60;99.90;;;;;;4406282;32;20177;-63
2023/09/19 06:54:24;;;;;;;0.90;0.90;;;17.70;99.90;;;;;;4379364;32;20101;-63
2023/09/19 06:56:49;;;;;;;0.37;0.37;;;17.80;99.90;;;;;;4380322;32;20093;-61
2023/09/19 06:59:16;;;;;;;0.20;0.20;;;17.80;99.90;;;;;;4394047;32;20697;-62
2023/09/19 07:01:44;;;;;;;0.65;0.65;;;18.00;99.90;;;;;;4391926;32;20548;-62
2023/09/19 07:04:09;;;;;;;0.68;0.68;;;18.10;99.90;;;;;;4390805;32;20085;-62
2023/09/19 07:06:35;;;;;;;0.40;0.40;;;18.20;99.90;;;;;;4386561;32;20748;-63
2023/09/19 07:09:01;;;;;;;0.37;0.37;;;18.30;99.90;;;;;;4375455;32;20093;-63
2023/09/19 07:11:26;;;;;;;35.08;2.20;;;18.40;99.90;;;;;;4391706;32;20248;-62
2023/09/19 07:13:52;;;;;;;0.73;0.62;;;18.50;99.90;;;;;;4400101;32;20347;-62
2023/09/19 07:16:27;;;;;;;0.30;0.30;;;18.60;99.90;;;;;;4392942;32;20085;-62
2023/09/19 07:18:53;;;;;;;0.40;0.40;;;18.70;99.90;;;;;;4388617;32;20141;-62
2023/09/19 07:21:19;;;;;;;2.90;1.65;;;18.80;99.90;;;;;;4391434;32;20136;-61
2023/09/19 07:23:44;;;;;;;0.30;0.30;;;18.70;99.90;;;;;;4392219;32;20076;-63
2023/09/19 07:26:10;;;;;;;0.40;0.40;;;18.70;99.90;;;;;;4389529;32;20097;-61
2023/09/19 07:28:36;;;;;;;0.40;0.40;;;18.80;99.90;;;;;;4383482;32;20472;-63
2023/09/19 07:31:03;;;;;;;0.40;0.40;;;18.80;99.90;;;;;;4388051;32;20141;-62
2023/09/19 07:33:28;;;;;;;0.32;0.32;;;18.80;99.90;;;;;;4398379;32;20093;-63
2023/09/19 07:35:55;;;;;;;3.95;0.85;;;18.70;99.90;;;;;;4384989;32;20282;-63
2023/09/19 07:38:21;;;;;;;0.30;0.30;;;18.70;99.90;;;;;;4404262;32;20141;-63
2023/09/19 07:40:46;;;;;;;0.40;0.40;;;18.70;99.90;;;;;;4406942;32;20073;-63
2023/09/19 07:43:12;;;;;;;0.32;0.32;;;18.80;99.90;;;;;;4387397;32;20179;-64
2023/09/19 07:45:38;;;;;;;0.80;0.50;;;18.70;99.90;;;;;;4400824;32;20102;-62
2023/09/19 07:48:06;;;;;;;0.45;0.45;;;18.60;99.90;;;;;;4387871;32;20097;-63
2023/09/19 07:50:36;;;;;;;0.73;0.73;;;18.50;99.90;;;;;;4369061;32;20089;-62
2023/09/19 07:53:04;;;;;;;1.58;0.68;;;18.60;99.90;;;;;;4377442;32;20200;-62
2023/09/19 07:55:30;;;;;;;0.30;0.30;;;18.70;99.90;;;;;;4394606;32;20583;-62
2023/09/19 07:57:56;;;;;;;0.75;0.40;;;18.90;99.90;;;;;;4360439;32;20121;-62
2023/09/19 08:00:21;;;;;;;0.30;0.30;;;19.10;99.90;;;;;;4386613;32;20125;-63
2023/09/19 08:02:47;;;;;;;0.30;0.30;;;19.10;99.90;;;;;;4386491;32;20376;-63
2023/09/19 08:05:15;;;;;;;0.40;0.40;;;19.20;99.90;;;;;;4367974;32;20097;-61
2023/09/19 08:07:43;;;;;;;0.62;0.62;;;19.20;99.90;;;;;;4374237;32;20450;-62
2023/09/19 08:10:13;;;;;;;0.62;0.62;;;18.90;99.90;;;;;;4380768;32;20623;-62
2023/09/19 08:12:46;;;;;;;0.40;0.40;;;18.90;99.90;;;;;;4379272;32;20098;-63
2023/09/19 08:15:15;;;;;;;0.40;0.40;;;18.90;99.90;;;;;;4367808;32;20205;-63
2023/09/19 08:17:40;;;;;;;0.30;0.30;;;18.90;99.90;;;;;;4379348;32;20089;-63
2023/09/19 08:20:07;;;;;;;0.40;0.40;;;18.90;99.90;;;;;;4365556;32;20164;-63
2023/09/19 08:22:33;;;;;;;0.62;0.62;;;18.80;99.90;;;;;;4379353;32;20094;-62
2023/09/19 08:24:58;;;;;;;0.40;0.40;;;18.60;99.90;;;;;;4385910;32;20175;-62
2023/09/19 08:27:27;;;;;;;0.55;0.55;;;18.60;99.90;;;;;;4385709;32;20328;-63
2023/09/19 08:29:53;;;;;;;7.82;0.50;;;18.50;99.90;;;;;;4383237;32;20635;-64
2023/09/19 08:32:23;;;;;;;0.30;0.30;;;18.60;99.90;;;;;;4379160;32;20104;-63
2023/09/19 08:34:49;;;;;;;0.50;0.50;;;18.50;99.90;;;;;;4369483;32;20758;-62
2023/09/19 08:37:15;;;;;;;2.03;0.95;;;18.50;99.90;;;;;;4362966;32;20101;-62
2023/09/19 08:39:41;;;;;;;0.20;0.20;;;18.60;99.90;;;;;;4365726;32;20238;-63
2023/09/19 08:42:07;;;;;;;0.93;0.85;;;18.70;99.90;;;;;;4387725;32;20160;-62
2023/09/19 08:44:37;;;;;;;0.32;0.32;;;18.80;99.90;;;;;;4389252;32;20105;-62
2023/09/19 08:47:13;;;;;;;2.30;1.08;;;18.70;99.90;;;;;;4369329;32;20109;-62
2023/09/19 08:50:00;;;;;;;0.30;0.30;;;18.60;99.90;;;;;;4367170;32;20085;-62
2023/09/19 08:52:33;;;;;;;0.45;0.45;;;18.70;99.90;;;;;;4365338;32;20452;-61
2023/09/19 08:55:04;;;;;;;0.30;0.30;;;18.60;99.90;;;;;;4380190;32;20188;-63
2023/09/19 08:57:35;;;;;;;0.30;0.30;;;18.70;99.90;;;;;;4369275;32;20117;-63
2023/09/19 09:00:05;;;;;;;0.30;0.30;;;18.80;99.90;;;;;;4388185;32;20474;-62
2023/09/19 09:02:33;;;;;;;0.30;0.30;;;18.90;99.90;;;;;;4375280;32;20105;-63
2023/09/19 09:05:00;;;;;;;1.37;0.60;;;18.90;99.90;;;;;;4382568;32;20196;-62
2023/09/19 09:07:28;;;;;;;0.88;0.60;;;18.90;99.90;;;;;;4380227;32;20109;-63
2023/09/19 09:09:53;;;;;;;0.47;0.47;;;18.90;99.90;;;;;;4381879;32;20654;-62
2023/09/19 09:12:20;;;;;;;0.50;0.50;;;18.90;99.90;;;;;;4364346;32;20159;-60
2023/09/19 09:14:48;;;;;;;0.73;0.73;;;18.90;99.90;;;;;;4371108;32;20093;-62
2023/09/19 09:17:15;;;;;;;0.68;0.62;;;19.00;99.90;;;;;;4381287;32;20204;-62
2023/09/19 09:19:42;;;;;;;0.30;0.30;;;18.90;99.90;;;;;;4372513;32;20606;-63
2023/09/19 09:22:08;;;;;;;0.30;0.30;;;19.00;99.90;;;;;;4378042;32;20105;-62
2023/09/19 09:24:36;;;;;;;0.50;0.50;;;19.20;99.90;;;;;;4371469;32;20193;-62
2023/09/19 09:27:05;;;;;;;1.17;1.10;;;19.30;99.90;;;;;;4372464;32;20647;-62
2023/09/19 09:29:49;;;;;;;0.30;0.30;;;19.50;99.90;;;;;;4361152;32;20069;-63
2023/09/19 09:32:20;;;;;;;3.60;1.05;;;19.70;99.90;;;;;;4355290;32;20118;-63
2023/09/19 09:34:47;;;;;;;;;;;19.80;99.90;;;;;;4385396;32;20750;-63
2023/09/19 09:37:17;;;;;;;1.58;0.80;;;19.70;99.90;;;;;;4378415;32;19973;-62
2023/09/19 09:39:51;;;;;;;0.82;0.47;;;19.50;99.90;;;;;;4360822;32;20089;-62
2023/09/19 09:42:32;;;;;;;1.00;0.40;;;19.30;99.90;;;;;;4371257;32;20535;-63
2023/09/19 09:45:13;;;;;;;1.10;1.00;;;19.10;99.90;;;;;;4372203;32;20121;-62
2023/09/19 09:47:54;;;;;;;0.47;0.47;;;19.00;99.90;;;;;;4393926;32;20195;-61
2023/09/19 09:50:44;;;;;;;0.40;0.40;;;19.00;99.90;;;;;;4397893;32;20164;-62
2023/09/19 09:53:32;;;;;;;0.30;0.30;;;19.00;99.90;;;;;;4385740;32;20126;-63
2023/09/19 09:56:07;;;;;;;0.43;0.43;;;19.20;99.90;;;;;;4377432;32;20118;-63
2023/09/19 09:58:35;;;;;;;0.65;0.65;;;19.50;99.90;;;;;;4373913;32;20125;-63
2023/09/19 10:01:08;;;;;;;0.60;0.60;;;19.80;99.90;;;;;;4369281;32;20491;-63
2023/09/19 10:03:43;;;;;;;0.32;0.32;;;20.10;99.90;;;;;;4396500;32;20090;-62
2023/09/19 10:06:24;;;;;;;0.50;0.50;;;20.20;99.90;;;;;;4371631;32;20093;-62
2023/09/19 10:09:11;;;;;;;0.20;0.20;;;20.30;99.90;;;;;;4387165;32;20082;-62
2023/09/19 10:11:45;;;;;;;0.22;0.22;;;20.10;99.90;;;;;;4366226;32;20130;-63
2023/09/19 10:14:12;;;;;;;0.30;0.30;;;20.10;99.90;;;;;;4371572;32;21029;-63
2023/09/19 10:16:44;;;;;;;1.25;0.95;;;20.00;99.90;;;;;;4370986;32;20129;-63
2023/09/19 10:19:11;;;;;;;0.32;0.32;;;20.00;99.90;;;;;;4384092;32;20121;-63
2023/09/19 10:21:39;;;;;;;4.80;1.27;;;19.90;99.90;;;;;;4400572;32;20248;-63
2023/09/19 10:24:08;;;;;;;0.50;0.50;;;19.80;99.90;;;;;;4401487;32;20541;-63
2023/09/19 10:26:35;;;;;;;1.55;0.75;;;19.60;99.90;;;;;;4393665;32;20675;-62
2023/09/19 10:29:03;;;;;;;0.65;0.62;;;19.70;99.90;;;;;;4401769;32;20077;-62
2023/09/19 10:31:35;;;;;;;0.80;0.40;;;19.80;99.90;;;;;;4400818;32;20086;-61
2023/09/19 10:34:04;;;;;;;0.37;0.37;;;20.20;99.90;;;;;;4392939;32;20632;-62
2023/09/19 10:36:34;;;;;;;1.67;0.62;;;20.40;99.90;;;;;;4395855;32;20690;-60
2023/09/19 10:39:04;;;;;;;1.45;0.70;;;20.70;99.90;;;;;;4381422;32;20109;-62
2023/09/19 10:41:34;;;;;;;0.50;0.50;;;20.90;99.90;;;;;;4368990;32;20576;-62
2023/09/19 10:44:03;;;;;;;0.22;0.22;;;21.10;99.90;;;;;;4394191;32;20136;-60
2023/09/19 10:46:28;;;;;;;0.30;0.30;;;21.20;99.90;;;;;;4385906;32;20108;-63
2023/09/19 10:49:00;;;;;;;0.65;0.65;;;21.10;99.90;;;;;;4389732;32;20116;-64
2023/09/19 10:51:28;;;;;;;0.20;0.20;;;21.10;99.90;;;;;;4392651;32;21002;-62
2023/09/19 10:54:00;;;;;;;0.45;0.43;;;21.10;99.90;;;;;;4379373;32;20109;-62
2023/09/19 10:56:32;;;;;;;1.55;0.55;;;21.00;99.90;;;;;;4370197;32;20284;-62
2023/09/19 10:59:16;;;;;;;0.20;0.20;;;21.00;99.90;;;;;;4369704;32;20243;-62
2023/09/19 11:01:47;;;;;;;0.52;0.52;;;21.30;99.90;;;;;;4385613;32;20200;-61
2023/09/19 11:04:30;;;;;;;;;;;21.40;99.90;;;;;;4390200;32;20283;-62
2023/09/19 11:07:08;;;;;;;7.57;0.57;;;21.50;99.90;;;;;;4405093;32;19960;-62
2023/09/19 11:09:57;;;;;;;5.15;0.82;;;21.60;99.80;;;;;;4405962;32;20130;-61
2023/09/19 11:12:36;;;;;;;0.20;0.20;;;22.00;99.10;;;;;;4389093;32;20266;-60
2023/09/19 11:15:12;;;;;;;0.47;0.47;;;22.00;99.40;;;;;;4399308;32;20200;-62
2023/09/19 11:17:41;;;;;;;0.25;0.25;;;22.00;99.50;;;;;;4400850;32;20693;-62
2023/09/19 11:23:17;;;;;;;0.28;0.28;;;22.20;97.70;;;;;;4399727;32;20099;-62
2023/09/19 11:25:47;;;;;;;0.17;0.17;;;22.40;97.90;;;;;;4377507;32;20098;-62
2023/09/19 11:28:17;;;;;;;0.50;0.50;;;22.50;96.80;;;;;;4392904;32;20121;-63
2023/09/19 11:30:44;;;;;;;0.45;0.45;;;22.40;97.10;;;;;;4400348;32;20109;-62
2023/09/19 11:33:23;;;;;;;4.78;0.85;;;22.30;97.20;;;;;;4385872;32;20132;-61
2023/09/19 11:36:12;;;;;;;0.30;0.30;;;22.40;97.20;;;;;;4385129;32;20096;-62
2023/09/19 11:38:47;;;;;;;0.20;0.20;;;22.40;97.50;;;;;;4389521;32;20105;-62
2023/09/19 11:41:40;;;;;;;0.30;0.30;;;22.40;96.90;;;;;;4400298;32;20109;-62
2023/09/19 11:44:12;;;;;;;0.40;0.40;;;22.30;96.70;;;;;;4382671;32;20232;-62
2023/09/19 11:46:56;;;;;;;7.85;0.37;;;22.20;96.90;;;;;;4394209;32;20105;-62
2023/09/19 11:49:31;;;;;;;3.40;0.55;;;22.10;97.60;;;;;;4387817;32;77305;-62
2023/09/19 11:52:01;;;;;;;0.20;0.20;;;22.00;97.20;;;;;;4392369;32;20101;-62
2023/09/19 11:54:31;;;;;;;1.92;0.77;;;22.10;96.90;;;;;;4409622;32;20102;-61
2023/09/19 11:56:58;;;;;;;0.57;0.47;;;22.30;96.20;;;;;;4404166;32;20568;-63
2023/09/19 11:59:28;;;;;;;0.65;0.37;;;22.30;96.40;;;;;;4390547;32;20430;-61
2023/09/19 12:01:58;;;;;;;1.55;0.88;;;22.10;95.90;;;;;;4408930;32;20066;-62
2023/09/19 12:04:43;;;;;;;4.00;0.52;;;22.00;96.10;;;;;;4407168;32;20109;-62
2023/09/19 12:07:16;;;;;;;0.20;0.20;;;22.10;96.60;;;;;;4393499;32;20082;-62
2023/09/19 12:09:44;;;;;;;1.27;0.50;;;22.10;96.60;;;;;;4407025;32;20557;-61
2023/09/19 12:12:12;;;;;;;2.78;1.33;;;22.30;96.30;;;;;;4381206;32;20212;-61
2023/09/19 12:14:39;;;;;;;0.35;0.35;;;22.40;95.60;;;;;;4410193;32;20094;-62
2023/09/19 12:17:04;;;;;;;0.37;0.37;;;22.30;95.20;;;;;;4407786;32;20116;-62
2023/09/19 12:19:30;;;;;;;0.20;0.20;;;22.40;95.30;;;;;;4395269;32;20085;-62
2023/09/19 12:21:59;;;;;;;0.20;0.20;;;22.40;95.20;;;;;;4402051;32;20199;-62
2023/09/19 12:24:29;;;;;;;0.30;0.30;;;22.50;95.20;;;;;;4384948;32;20151;-62
2023/09/19 12:27:04;;;;;;;1.90;0.75;;;22.50;94.80;;;;;;4392552;32;20122;-62
2023/09/19 12:29:31;;;;;;;0.20;0.20;;;22.40;94.80;;;;;;4386861;32;20089;-61
2023/09/19 12:31:57;;;;;;;3.53;0.25;;;22.60;94.70;;;;;;4371851;32;20147;-62
2023/09/19 12:34:27;;;;;;;0.22;0.22;;;22.90;94.80;;;;;;4388497;32;20268;-61
2023/09/19 12:37:20;;;;;;;0.10;0.10;;;23.40;94.50;;;;;;4393600;32;20620;-61
2023/09/19 12:39:50;;;;;;;0.50;0.40;;;23.50;93.20;;;;;;4391824;32;20134;-63
2023/09/19 12:42:18;;;;;;;0.10;0.10;;;23.80;92.80;;;;;;4385949;32;20101;-63
2023/09/19 12:44:46;;;;;;;0.22;0.22;;;23.90;92.70;;;;;;4391248;32;20621;-63
2023/09/19 12:47:15;;;;;;;0.10;0.10;;;24.00;92.50;;;;;;4379185;32;20784;-62
2023/09/19 12:50:13;;;;;;;1.48;0.93;;;23.90;93.00;;;;;;4395851;32;20086;-63
2023/09/19 12:52:41;;;;;;;0.10;0.10;;;23.80;92.90;;;;;;4394033;32;20159;-63
2023/09/19 12:55:08;;;;;;;0.95;0.45;;;23.60;92.80;;;;;;4396626;32;20100;-62
2023/09/19 12:57:34;;;;;;;0.30;0.30;;;23.50;92.80;;;;;;4400095;32;20094;-63
2023/09/19 13:00:05;;;;;;;1.48;0.85;;;23.60;92.70;;;;;;4399996;32;20581;-62
2023/09/19 13:02:31;;;;;;;0.20;0.20;;;23.40;93.10;;;;;;4404767;32;20081;-62